createdAt,value
2019-02-07T00:01:47.515Z,7.97
2019-02-07T00:04:16.903Z,7.83
2019-02-07T00:06:46.419Z,7.15
2019-02-07T00:09:16.079Z,7.28
2019-02-07T00:11:45.849Z,7.40
2019-02-07T00:14:15.504Z,6.87
2019-02-07T00:16:45.341Z,6.90
2019-02-07T00:19:14.980Z,7.17
2019-02-07T00:21:44.681Z,7.55
2019-02-07T00:24:14.181Z,7.17
2019-02-07T00:26:44.281Z,8.15
2019-02-07T00:29:13.635Z,6.85
2019-02-07T00:31:43.291Z,7.08
2019-02-07T00:34:13.146Z,7.05
2019-02-07T00:36:42.770Z,6.97
2019-02-07T00:39:12.308Z,7.47
2019-02-07T00:41:41.678Z,7.10
2019-02-07T00:44:11.143Z,7.47
2019-02-07T00:46:40.581Z,7.55
2019-02-07T00:49:09.915Z,7.53
2019-02-07T00:51:39.185Z,8.18
2019-02-07T00:54:08.895Z,7.95
2019-02-07T00:56:39.851Z,7.92
2019-02-07T00:59:09.758Z,8.13
2019-02-07T01:01:39.312Z,7.90
2019-02-07T01:04:09.026Z,8.33
2019-02-07T01:06:38.409Z,7.85
2019-02-07T01:09:10.004Z,8.25
2019-02-07T01:11:39.554Z,7.65
2019-02-07T01:14:09.005Z,8.00
2019-02-07T01:16:38.507Z,8.65
2019-02-07T01:19:08.525Z,8.28
2019-02-07T01:21:37.887Z,8.28
2019-02-07T01:24:08.020Z,8.68
2019-02-07T01:26:37.263Z,8.08
2019-02-07T01:29:06.617Z,8.33
2019-02-07T01:31:35.948Z,8.60
2019-02-07T01:34:05.357Z,8.68
2019-02-07T01:36:34.986Z,9.10
2019-02-07T01:39:07.691Z,8.38
2019-02-07T01:41:37.106Z,8.73
2019-02-07T01:44:06.477Z,8.28
2019-02-07T01:46:36.047Z,8.65
2019-02-07T01:49:05.639Z,8.30
2019-02-07T01:51:35.134Z,9.00
2019-02-07T01:54:05.031Z,8.58
2019-02-07T01:56:34.410Z,8.43
2019-02-07T01:59:03.742Z,8.60
2019-02-07T02:01:33.566Z,7.92
2019-02-07T02:04:02.886Z,7.90
2019-02-07T02:06:32.757Z,7.83
2019-02-07T02:09:02.014Z,8.28
2019-02-07T02:11:31.631Z,7.87
2019-02-07T02:14:00.986Z,7.97
2019-02-07T02:16:30.709Z,8.20
2019-02-07T02:19:00.134Z,7.40
2019-02-07T02:21:29.579Z,7.37
2019-02-07T02:23:58.996Z,6.95
2019-02-07T02:26:29.512Z,8.10
2019-02-07T02:28:59.070Z,7.90
2019-02-07T02:31:28.566Z,7.37
2019-02-07T02:33:58.235Z,7.87
2019-02-07T02:36:28.210Z,7.33
2019-02-07T02:38:57.634Z,8.10
2019-02-07T02:41:26.884Z,7.97
2019-02-07T02:43:56.866Z,7.97
2019-02-07T02:46:27.565Z,7.45
2019-02-07T02:48:57.352Z,7.80
2019-02-07T02:51:27.219Z,7.37
2019-02-07T02:53:59.121Z,8.13
2019-02-07T02:56:29.338Z,8.25
2019-02-07T02:58:58.604Z,7.65
2019-02-07T03:01:52.851Z,7.90
2019-02-07T03:04:31.940Z,6.90
2019-02-07T03:07:19.057Z,7.67
2019-02-07T03:10:07.059Z,8.30
2019-02-07T03:13:01.606Z,7.25
2019-02-07T03:15:53.482Z,7.85
2019-02-07T03:18:40.620Z,7.55
2019-02-07T03:21:27.779Z,7.12
2019-02-07T03:24:31.241Z,7.05
2019-02-07T03:27:31.975Z,7.17
2019-02-07T03:30:23.483Z,8.25
2019-02-07T03:33:17.919Z,7.60
2019-02-07T03:35:58.549Z,7.05
2019-02-07T03:38:43.238Z,7.12
2019-02-07T03:41:32.930Z,7.35
2019-02-07T03:44:21.540Z,7.58
2019-02-07T03:47:25.230Z,7.25
2019-02-07T03:50:23.002Z,7.58
2019-02-07T03:53:10.095Z,7.70
2019-02-07T03:56:04.649Z,8.08
2019-02-07T03:58:51.786Z,8.38
2019-02-07T04:01:38.724Z,7.45
2019-02-07T04:04:26.064Z,6.95
2019-02-07T04:07:11.006Z,8.48
2019-02-07T04:09:59.296Z,8.45
2019-02-07T04:12:53.529Z,9.65
2019-02-07T04:15:45.190Z,9.38
2019-02-07T04:18:32.362Z,8.75
2019-02-07T04:21:19.494Z,9.45
2019-02-07T04:23:59.943Z,8.78
2019-02-07T04:26:52.390Z,8.38
2019-02-07T04:29:46.987Z,7.90
2019-02-07T04:32:48.026Z,7.25
2019-02-07T04:35:36.980Z,8.23
2019-02-07T04:38:24.816Z,7.60
2019-02-07T04:41:18.349Z,8.43
2019-02-07T04:44:02.028Z,8.50
2019-02-07T04:46:49.326Z,8.65
2019-02-07T04:49:35.942Z,7.70
2019-02-07T04:52:27.488Z,7.62
2019-02-07T04:55:26.251Z,8.08
2019-02-07T04:58:13.249Z,8.55
2019-02-07T05:01:20.384Z,9.43
2019-02-07T05:04:05.055Z,8.35
2019-02-07T05:06:53.326Z,8.98
2019-02-07T05:09:56.777Z,8.60
2019-02-07T05:13:03.278Z,8.40
2019-02-07T05:15:52.588Z,11.00
2019-02-07T05:18:41.359Z,11.48
2019-02-07T05:21:29.907Z,12.10
2019-02-07T05:24:08.315Z,12.60
2019-02-07T05:26:46.185Z,12.05
2019-02-07T05:29:34.628Z,11.12
2019-02-07T05:32:21.968Z,11.80
2019-02-07T05:35:08.290Z,11.30
2019-02-07T05:38:02.634Z,10.68
2019-02-07T05:40:47.818Z,10.53
2019-02-07T05:43:35.545Z,10.98
2019-02-07T05:46:12.762Z,10.28
2019-02-07T05:49:01.021Z,14.00
2019-02-07T05:51:53.586Z,13.62
2019-02-07T05:54:54.942Z,12.53
2019-02-07T05:57:53.059Z,14.00
2019-02-07T06:00:44.401Z,17.00
2019-02-07T06:03:48.121Z,21.15
2019-02-07T06:06:42.231Z,20.75
2019-02-07T06:09:29.426Z,18.92
2019-02-07T06:12:27.944Z,17.57
2019-02-07T06:15:19.376Z,15.23
2019-02-07T06:18:01.971Z,14.35
2019-02-07T06:20:56.344Z,13.75
2019-02-07T06:23:47.826Z,12.73
2019-02-07T06:26:39.247Z,11.43
2019-02-07T06:29:18.577Z,10.63
2019-02-07T06:32:03.466Z,11.08
2019-02-07T06:34:50.804Z,10.30
2019-02-07T06:37:57.458Z,10.82
2019-02-07T06:40:44.482Z,9.98
2019-02-07T06:43:32.857Z,10.85
2019-02-07T06:46:21.527Z,12.30
2019-02-07T06:49:19.302Z,16.23
2019-02-07T06:52:10.449Z,14.55
2019-02-07T06:54:58.930Z,13.85
2019-02-07T06:57:56.503Z,14.40
2019-02-07T07:01:03.526Z,12.68
2019-02-07T07:04:09.949Z,12.53
2019-02-07T07:06:58.361Z,11.80
2019-02-07T07:09:53.046Z,14.60
2019-02-07T07:12:41.496Z,14.90
2019-02-07T07:15:29.298Z,17.57
2019-02-07T07:18:12.089Z,14.93
2019-02-07T07:21:07.278Z,13.78
2019-02-07T07:23:54.730Z,12.70
2019-02-07T07:26:46.224Z,15.55
2019-02-07T07:29:26.210Z,12.73
2019-02-07T07:32:17.448Z,12.03
2019-02-07T07:35:24.250Z,13.55
2019-02-07T07:38:16.318Z,12.40
2019-02-07T07:41:03.847Z,12.73
2019-02-07T07:43:46.327Z,10.80
2019-02-07T07:46:39.775Z,11.57
2019-02-07T07:49:43.713Z,12.45
2019-02-07T07:52:38.251Z,11.93
2019-02-07T07:55:35.817Z,11.83
2019-02-07T07:58:21.829Z,12.35
2019-02-07T08:01:22.128Z,11.45
2019-02-07T08:04:05.907Z,11.55
2019-02-07T08:06:54.221Z,12.15
2019-02-07T08:09:43.558Z,11.33
2019-02-07T08:12:44.385Z,13.20
2019-02-07T08:15:33.114Z,13.30
2019-02-07T08:18:27.757Z,12.82
2019-02-07T08:21:22.144Z,13.38
2019-02-07T08:24:01.605Z,14.35
2019-02-07T08:27:05.648Z,15.35
2019-02-07T08:30:06.097Z,17.12
2019-02-07T08:32:46.045Z,16.75
2019-02-07T08:35:34.461Z,16.85
2019-02-07T08:38:26.302Z,18.75
2019-02-07T08:41:13.305Z,21.20
2019-02-07T08:44:00.765Z,18.45
2019-02-07T08:46:48.126Z,15.18
2019-02-07T08:49:36.079Z,13.65
2019-02-07T08:52:31.218Z,14.00
2019-02-07T08:55:28.557Z,15.55
2019-02-07T08:58:22.704Z,15.15
2019-02-07T09:01:14.305Z,13.80
2019-02-07T09:04:01.202Z,14.00
2019-02-07T09:06:51.146Z,15.28
2019-02-07T09:09:50.350Z,18.13
2019-02-07T09:12:47.837Z,15.05
2019-02-07T09:15:54.811Z,12.83
2019-02-07T09:18:52.267Z,13.90
2019-02-07T09:21:49.907Z,14.87
2019-02-07T09:24:37.227Z,15.73
2019-02-07T09:27:18.499Z,15.73
2019-02-07T09:30:10.035Z,18.10
2019-02-07T09:33:16.743Z,18.53
2019-02-07T09:36:10.970Z,16.03
2019-02-07T09:38:58.060Z,15.17
2019-02-07T09:41:52.584Z,14.73
2019-02-07T09:44:45.617Z,16.80
2019-02-07T09:47:31.768Z,14.93
2019-02-07T09:50:24.415Z,16.70
2019-02-07T09:53:28.230Z,16.43
2019-02-07T09:56:15.435Z,19.03
2019-02-07T09:59:09.357Z,18.63
2019-02-07T10:02:01.209Z,15.90
2019-02-07T10:05:05.131Z,14.77
2019-02-07T10:07:53.272Z,15.40
2019-02-07T10:10:44.525Z,15.47
2019-02-07T10:13:34.179Z,17.03
2019-02-07T10:16:21.599Z,21.33
2019-02-07T10:19:13.170Z,20.17
2019-02-07T10:22:04.618Z,21.97
2019-02-07T10:25:11.606Z,28.33
2019-02-07T10:28:05.875Z,36.10
2019-02-07T10:30:59.156Z,32.73
2019-02-07T10:33:46.515Z,27.13
2019-02-07T10:36:34.287Z,22.07
2019-02-07T10:39:33.477Z,20.03
2019-02-07T10:42:20.463Z,18.63
2019-02-07T10:45:02.892Z,19.63
2019-02-07T10:47:57.050Z,18.67
2019-02-07T10:50:45.648Z,16.17
2019-02-07T10:53:34.038Z,15.97
2019-02-07T10:56:40.651Z,17.53
2019-02-07T10:59:31.701Z,16.47
2019-02-07T11:02:35.919Z,17.50
2019-02-07T11:05:19.323Z,18.13
2019-02-07T11:08:26.267Z,17.13
2019-02-07T11:11:14.839Z,15.90
2019-02-07T11:13:54.681Z,15.70
2019-02-07T11:16:50.182Z,17.33
2019-02-07T11:19:37.445Z,19.30
2019-02-07T11:22:25.620Z,17.20
2019-02-07T11:25:28.451Z,16.33
2019-02-07T11:28:14.303Z,17.53
2019-02-07T11:31:02.862Z,18.17
2019-02-07T11:34:06.722Z,10.60
2019-02-07T11:36:54.587Z,11.90
2019-02-07T11:39:42.048Z,14.63
2019-02-07T11:42:42.271Z,13.83
2019-02-07T11:45:20.642Z,6.93
2019-02-07T11:48:12.175Z,8.00
2019-02-07T11:50:59.335Z,7.70
2019-02-07T11:53:46.596Z,8.13
2019-02-07T11:56:34.121Z,7.10
2019-02-07T11:59:15.115Z,8.17
2019-02-07T12:02:09.076Z,7.53
2019-02-07T12:04:42.494Z,9.00
2019-02-07T12:07:36.842Z,8.23
2019-02-07T12:10:31.615Z,8.87
2019-02-07T12:13:20.084Z,8.10
2019-02-07T12:16:07.386Z,9.07
2019-02-07T12:19:17.479Z,8.13
2019-02-07T12:21:58.171Z,7.73
2019-02-07T12:24:49.470Z,7.40
2019-02-07T12:27:45.914Z,8.60
2019-02-07T12:30:34.339Z,7.80
2019-02-07T12:33:21.814Z,9.03
2019-02-07T12:35:59.378Z,8.73
2019-02-07T12:38:42.434Z,8.60
2019-02-07T12:41:31.116Z,7.97
2019-02-07T12:44:28.445Z,8.13
2019-02-07T12:47:17.224Z,9.27
2019-02-07T12:50:11.567Z,8.17
2019-02-07T12:53:00.342Z,9.10
2019-02-07T12:55:58.272Z,7.93
2019-02-07T12:58:45.639Z,10.00
2019-02-07T13:01:25.961Z,7.63
2019-02-07T13:04:14.273Z,5.70
2019-02-07T13:07:12.075Z,6.70
2019-02-07T13:09:52.368Z,6.50
2019-02-07T13:12:39.535Z,4.97
2019-02-07T13:15:32.546Z,4.23
2019-02-07T13:18:29.978Z,4.60
2019-02-07T13:21:16.671Z,5.03
2019-02-07T13:24:04.036Z,4.90
2019-02-07T13:26:51.749Z,5.10
2019-02-07T13:29:34.043Z,3.63
2019-02-07T13:32:42.420Z,6.30
2019-02-07T13:35:29.722Z,7.07
2019-02-07T13:38:12.075Z,7.37
2019-02-07T13:41:00.963Z,38.90
2019-02-07T13:43:48.420Z,4.87
2019-02-07T13:46:38.954Z,6.83
2019-02-07T13:49:33.198Z,10.57
2019-02-07T13:52:24.383Z,5.60
2019-02-07T13:55:30.923Z,5.10
2019-02-07T13:58:10.459Z,3.70
2019-02-07T14:01:08.229Z,5.27
2019-02-07T14:03:55.505Z,4.53
2019-02-07T14:07:02.323Z,10.43
2019-02-07T14:09:53.947Z,6.10
2019-02-07T14:12:41.488Z,10.37
2019-02-07T14:15:24.527Z,9.07
2019-02-07T14:18:07.094Z,4.20
2019-02-07T14:20:58.274Z,2.33
2019-02-07T14:23:55.728Z,3.70
2019-02-07T14:27:02.404Z,4.43
2019-02-07T14:29:51.413Z,3.93
2019-02-07T14:32:38.683Z,4.90
2019-02-07T14:35:34.986Z,2.40
2019-02-07T14:38:22.278Z,2.60
2019-02-07T14:41:00.445Z,2.80
2019-02-07T14:43:47.475Z,2.93
2019-02-07T14:46:35.783Z,3.60
2019-02-07T14:49:05.196Z,3.20
2019-02-07T14:51:34.732Z,3.07
2019-02-07T14:54:04.293Z,3.10
2019-02-07T14:56:34.327Z,3.40
2019-02-07T14:59:04.202Z,3.53
2019-02-07T15:01:33.566Z,3.70
2019-02-07T15:04:03.380Z,6.70
2019-02-07T15:06:32.783Z,10.13
2019-02-07T15:09:02.283Z,5.43
2019-02-07T15:11:32.030Z,5.20
2019-02-07T15:14:01.632Z,10.60
2019-02-07T15:16:31.073Z,5.07
2019-02-07T15:19:00.563Z,6.33
2019-02-07T15:21:30.045Z,5.97
2019-02-07T15:23:59.457Z,6.33
2019-02-07T15:26:29.153Z,6.67
2019-02-07T15:28:59.291Z,7.00
2019-02-07T15:31:29.007Z,8.03
2019-02-07T15:33:58.829Z,8.00
2019-02-07T15:36:28.267Z,7.20
2019-02-07T15:38:58.157Z,7.93
2019-02-07T15:41:28.055Z,17.93
2019-02-07T15:43:58.511Z,6.33
2019-02-07T15:46:28.256Z,6.40
2019-02-07T15:48:58.250Z,5.07
2019-02-07T15:51:27.890Z,4.17
2019-02-07T15:53:57.749Z,2.63
2019-02-07T15:56:30.247Z,2.43
2019-02-07T15:59:07.591Z,2.67
2019-02-07T16:01:44.918Z,2.43
2019-02-07T16:04:26.449Z,2.60
2019-02-07T16:06:56.104Z,2.20
2019-02-07T16:09:25.746Z,2.27
2019-02-07T16:11:55.534Z,2.93
2019-02-07T16:14:25.053Z,2.20
2019-02-07T16:16:54.742Z,2.17
2019-02-07T16:19:24.227Z,2.83
2019-02-07T16:21:54.071Z,2.10
2019-02-07T16:24:23.562Z,2.43
2019-02-07T16:26:53.160Z,2.77
2019-02-07T16:29:22.655Z,2.60
2019-02-07T16:31:52.218Z,2.67
2019-02-07T16:34:21.796Z,2.50
2019-02-07T16:36:51.467Z,2.50
2019-02-07T16:39:21.400Z,2.20
2019-02-07T16:41:51.149Z,2.30
2019-02-07T16:44:21.253Z,2.50
2019-02-07T16:46:54.326Z,2.50
2019-02-07T16:49:23.444Z,2.10
2019-02-07T16:51:53.358Z,2.60
2019-02-07T16:54:23.044Z,2.10
2019-02-07T16:56:53.304Z,2.30
2019-02-07T16:59:22.911Z,2.20
2019-02-07T17:01:52.651Z,2.60
2019-02-07T17:04:22.263Z,2.27
2019-02-07T17:06:51.717Z,2.50
2019-02-07T17:09:35.996Z,2.17
2019-02-07T17:12:06.227Z,2.27
2019-02-07T17:14:36.037Z,2.50
2019-02-07T17:17:05.734Z,2.63
2019-02-07T17:19:35.693Z,2.13
2019-02-07T17:22:05.656Z,2.77
2019-02-07T17:24:35.354Z,2.57
2019-02-07T17:27:05.717Z,2.80
2019-02-07T17:29:35.834Z,2.77
2019-02-07T17:32:06.265Z,2.60
2019-02-07T17:34:36.109Z,2.67
2019-02-07T17:37:05.926Z,2.50
2019-02-07T17:39:35.393Z,2.70
2019-02-07T17:42:05.683Z,2.60
2019-02-07T17:44:35.413Z,3.00
2019-02-07T17:47:05.125Z,2.67
2019-02-07T17:49:35.207Z,2.50
2019-02-07T17:52:04.902Z,2.60
2019-02-07T17:54:34.433Z,3.20
2019-02-07T17:57:04.513Z,2.70
2019-02-07T17:59:34.363Z,3.00
2019-02-07T18:02:05.806Z,3.40
2019-02-07T18:04:35.767Z,3.13
2019-02-07T18:07:05.881Z,3.70
2019-02-07T18:09:35.847Z,4.00
2019-02-07T18:12:05.947Z,5.27
2019-02-07T18:14:35.770Z,4.40
2019-02-07T18:17:05.394Z,5.10
2019-02-07T18:19:35.134Z,4.63
2019-02-07T18:22:05.009Z,5.27
2019-02-07T18:24:34.775Z,5.77
2019-02-07T18:27:04.672Z,5.77
2019-02-07T18:29:34.871Z,5.63
2019-02-07T18:32:04.924Z,6.50
2019-02-07T18:34:34.853Z,6.17
2019-02-07T18:37:04.477Z,5.67
2019-02-07T18:39:34.548Z,6.47
2019-02-07T18:42:04.172Z,6.03
2019-02-07T18:44:33.794Z,5.57
2019-02-07T18:47:03.682Z,6.40
2019-02-07T18:49:33.759Z,6.57
2019-02-07T18:52:03.700Z,8.27
2019-02-07T18:54:33.983Z,11.03
2019-02-07T18:57:03.975Z,12.17
2019-02-07T18:59:36.843Z,14.03
2019-02-07T19:02:06.803Z,16.73
2019-02-07T19:04:36.948Z,19.87
2019-02-07T19:07:07.157Z,21.57
2019-02-07T19:09:37.250Z,19.57
2019-02-07T19:12:06.924Z,20.83
2019-02-07T19:14:36.750Z,20.27
2019-02-07T19:17:06.595Z,18.97
2019-02-07T19:19:36.571Z,16.73
2019-02-07T19:22:06.728Z,16.30
2019-02-07T19:24:37.246Z,17.90
2019-02-07T19:27:07.021Z,13.10
2019-02-07T19:29:37.043Z,10.73
2019-02-07T19:32:07.289Z,11.90
2019-02-07T19:34:37.315Z,12.37
2019-02-07T19:37:07.137Z,11.53
2019-02-07T19:39:37.555Z,10.87
2019-02-07T19:42:07.622Z,11.07
2019-02-07T19:44:37.647Z,12.00
2019-02-07T19:47:07.791Z,12.00
2019-02-07T19:49:37.738Z,11.07
2019-02-07T19:52:08.666Z,10.70
2019-02-07T19:54:38.735Z,11.00
2019-02-07T19:57:08.957Z,10.53
2019-02-07T19:59:38.871Z,10.00
2019-02-07T20:02:08.529Z,9.50
2019-02-07T20:04:38.333Z,9.03
2019-02-07T20:07:08.516Z,9.33
2019-02-07T20:09:38.123Z,10.37
2019-02-07T20:12:08.079Z,10.63
2019-02-07T20:14:37.984Z,10.27
2019-02-07T20:17:07.688Z,8.90
2019-02-07T20:19:37.627Z,9.13
2019-02-07T20:22:07.581Z,8.73
2019-02-07T20:24:45.780Z,8.03
2019-02-07T20:27:09.146Z,8.25
2019-02-07T20:29:38.930Z,6.78
2019-02-07T20:32:08.628Z,6.65
2019-02-07T20:34:38.399Z,6.83
2019-02-07T20:37:08.097Z,6.58
2019-02-07T20:39:37.910Z,6.25
2019-02-07T20:42:07.792Z,6.37
2019-02-07T20:44:37.561Z,6.80
2019-02-07T20:47:07.365Z,6.75
2019-02-07T20:49:37.194Z,6.83
2019-02-07T20:52:07.295Z,6.28
2019-02-07T20:54:37.508Z,5.85
2019-02-07T20:57:07.137Z,6.35
2019-02-07T20:59:37.285Z,6.12
2019-02-07T21:02:06.992Z,6.25
2019-02-07T21:04:36.974Z,6.72
2019-02-07T21:07:06.727Z,6.90
2019-02-07T21:09:36.736Z,6.50
2019-02-07T21:12:06.691Z,6.95
2019-02-07T21:14:36.458Z,6.78
2019-02-07T21:17:06.203Z,6.60
2019-02-07T21:19:35.780Z,8.45
2019-02-07T21:22:05.928Z,8.70
2019-02-07T21:24:35.755Z,12.28
2019-02-07T21:27:05.390Z,15.55
2019-02-07T21:29:34.842Z,10.08
2019-02-07T21:32:04.838Z,9.45
2019-02-07T21:34:34.545Z,8.53
2019-02-07T21:37:04.113Z,9.65
2019-02-07T21:39:33.656Z,7.87
2019-02-07T21:42:03.746Z,7.80
2019-02-07T21:44:33.290Z,7.83
2019-02-07T21:47:02.727Z,7.20
2019-02-07T21:49:32.218Z,7.22
2019-02-07T21:52:01.743Z,7.33
2019-02-07T21:54:31.365Z,6.50
2019-02-07T21:57:00.855Z,6.22
2019-02-07T21:59:30.845Z,6.47
2019-02-07T22:02:00.545Z,6.12
2019-02-07T22:04:30.022Z,7.10
2019-02-07T22:06:59.557Z,7.33
2019-02-07T22:09:29.266Z,7.03
2019-02-07T22:11:58.805Z,7.83
2019-02-07T22:14:28.502Z,7.92
2019-02-07T22:16:57.981Z,9.70
2019-02-07T22:19:27.375Z,10.13
2019-02-07T22:21:57.028Z,9.08
2019-02-07T22:24:26.474Z,9.78
2019-02-07T22:26:56.016Z,10.03
2019-02-07T22:29:26.296Z,8.88
2019-02-07T22:31:55.897Z,8.28
2019-02-07T22:34:25.406Z,9.15
2019-02-07T22:36:54.914Z,9.73
2019-02-07T22:39:24.485Z,9.78
2019-02-07T22:41:54.055Z,8.60
2019-02-07T22:44:23.687Z,7.70
2019-02-07T22:46:53.191Z,8.28
2019-02-07T22:49:22.662Z,8.45
2019-02-07T22:51:52.092Z,8.53
2019-02-07T22:54:21.840Z,9.03
2019-02-07T22:56:51.229Z,8.65
2019-02-07T22:59:20.861Z,8.83
2019-02-07T23:01:55.802Z,9.10
2019-02-07T23:04:26.502Z,8.78
2019-02-07T23:06:55.833Z,9.05
2019-02-07T23:09:25.210Z,8.05
2019-02-07T23:11:55.331Z,8.40
2019-02-07T23:14:24.897Z,9.28
2019-02-07T23:16:54.253Z,8.98
2019-02-07T23:19:23.870Z,9.88
2019-02-07T23:21:53.284Z,9.40
2019-02-07T23:24:22.855Z,9.58
2019-02-07T23:26:52.501Z,10.70
2019-02-07T23:29:22.087Z,9.88
2019-02-07T23:31:51.578Z,10.53
2019-02-07T23:34:21.110Z,9.73
2019-02-07T23:36:50.652Z,10.38
2019-02-07T23:39:20.150Z,9.85
2019-02-07T23:41:49.907Z,10.65
2019-02-07T23:44:19.363Z,10.13
2019-02-07T23:46:48.713Z,9.35
2019-02-07T23:49:18.298Z,10.30
2019-02-07T23:51:47.634Z,9.95
2019-02-07T23:54:17.256Z,10.38
2019-02-07T23:56:46.838Z,10.50
2019-02-07T23:59:16.508Z,10.58
